メインページ
METAR-TAF:

METAR-TAF

空港 :

インディアナポリス, インディアナ州, アメリカ合衆国

インディアナポリス国際空港

緯度: 39-43-30N, 経度: 086-16-55W, 海抜: 243m

現時点の気象観測

当レポートは45分前の13:54(UTC)に作成
の風 6kt
気温 7°C
湿度 93%
気圧 1018 hPa
視程: 16.1km
高度900ftの曇り
散在霧

METAR: KIND 211354Z 18006KT 10SM BCFG OVC009 07/06 A3005 RMK AO2 SLP180 T00670061

時間: 09:39 (14:39 UTC)

予報

当レポートは3時間14分前の11:25(UTC)に作成
予報は21日の 12時(UTC)から 22日の 18時(UTC)まで有効
の風 4kt
視程: 3.2km
高度1000ftの曇り
小霧雨, 靄
21日の 1900時(UTC)から
の風 7kt
視程: 4.8km
高度1000ftの曇り
小霧雨, 靄
22日の 0000時(UTC)から
の風 7kt
視程: 1.6km
高度700ftの曇り
弱いにわか雨, 靄
22日の 0900時(UTC)から
の風 9kt
視程: 6.4km
高度800ftの曇り
22日の 1200時(UTC)から
南/南東の風 10kt
視程: 3.2km
高度1000ftの曇り
にわか雨
22日の 1400時(UTC)から
の風 13kt
視程: 4.8km
高度2000ftの曇り
にわか雨

TAF: KIND 211125Z 2112/2218 17004KT 2SM -DZ BR OVC010 FM211900 19007KT 3SM -DZ BR OVC010 FM220000 18007KT 1SM -SHRA BR OVC007 WS020/22035KT FM220900 17009KT 4SM BR OVC008 WS020/20040KT FM221200 16010KT 2SM SHRA OVC010 WS020/20045KT FM221400 17013KT 3SM SHRA OVC020 WS020/19045KT

4,000以上の空港の気象観測と天気予報(METAR報とTAF報)

利用可能な観測所は地図上に黄色い丸と赤い丸で示す。

丸の上にカーソルを重ねると観測所名を参照できる。

次にクリックすると気象観測と天気予報を参照できる。

マップの切り替え:黒色「×」印の緑ボタンをクリックして拡大、「-」印の緑ボタンをクリックして縮小、緑色の三角印をクリックして隣りの地図に切り替え


METAR-TAF: